sensor_id;sensor_type;location;lat;lon;timestamp;temperature;humidity
52965;DHT22;42923;53.220;6.528;2022-07-23T00:01:21;13.50;99.90
52965;DHT22;42923;53.220;6.528;2022-07-23T00:03:47;14.10;99.90
52965;DHT22;42923;53.220;6.528;2022-07-23T00:06:13;13.50;99.90
52965;DHT22;42923;53.220;6.528;2022-07-23T00:08:39;13.50;99.90
52965;DHT22;42923;53.220;6.528;2022-07-23T00:11:05;13.60;99.90
52965;DHT22;42923;53.220;6.528;2022-07-23T00:13:31;13.60;99.90
52965;DHT22;42923;53.220;6.528;2022-07-23T00:15:57;14.00;99.90
52965;DHT22;42923;53.220;6.528;2022-07-23T00:18:23;13.70;99.90
52965;DHT22;42923;53.220;6.528;2022-07-23T00:20:48;13.60;99.90
52965;DHT22;42923;53.220;6.528;2022-07-23T00:23:14;13.50;99.90
52965;DHT22;42923;53.220;6.528;2022-07-23T00:25:40;13.70;99.90
52965;DHT22;42923;53.220;6.528;2022-07-23T00:28:06;13.40;99.90
52965;DHT22;42923;53.220;6.528;2022-07-23T00:30:32;13.40;99.90
52965;DHT22;42923;53.220;6.528;2022-07-23T00:33:01;13.50;99.90
52965;DHT22;42923;53.220;6.528;2022-07-23T00:35:29;13.70;99.90
52965;DHT22;42923;53.220;6.528;2022-07-23T00:37:56;13.10;99.90
52965;DHT22;42923;53.220;6.528;2022-07-23T00:40:22;13.80;99.90
52965;DHT22;42923;53.220;6.528;2022-07-23T00:42:48;12.90;99.90
52965;DHT22;42923;53.220;6.528;2022-07-23T00:45:14;12.80;99.90
52965;DHT22;42923;53.220;6.528;2022-07-23T00:47:40;12.80;99.90
52965;DHT22;42923;53.220;6.528;2022-07-23T00:50:07;12.70;99.90
52965;DHT22;42923;53.220;6.528;2022-07-23T00:52:34;12.70;99.90
52965;DHT22;42923;53.220;6.528;2022-07-23T00:55:00;12.60;99.90
52965;DHT22;42923;53.220;6.528;2022-07-23T00:57:26;12.60;99.90
52965;DHT22;42923;53.220;6.528;2022-07-23T00:59:51;12.50;99.90
52965;DHT22;42923;53.220;6.528;2022-07-23T01:02:17;12.70;99.90
52965;DHT22;42923;53.220;6.528;2022-07-23T01:04:43;12.40;99.90
52965;DHT22;42923;53.220;6.528;2022-07-23T01:07:09;12.40;99.90
52965;DHT22;42923;53.220;6.528;2022-07-23T01:09:35;12.40;99.90
52965;DHT22;42923;53.220;6.528;2022-07-23T01:12:02;12.70;99.90
52965;DHT22;42923;53.220;6.528;2022-07-23T01:14:28;12.40;99.90
52965;DHT22;42923;53.220;6.528;2022-07-23T01:16:54;12.50;99.90
52965;DHT22;42923;53.220;6.528;2022-07-23T01:19:19;12.50;99.90
52965;DHT22;42923;53.220;6.528;2022-07-23T01:21:51;12.50;99.90
52965;DHT22;42923;53.220;6.528;2022-07-23T01:24:17;12.50;99.90
52965;DHT22;42923;53.220;6.528;2022-07-23T01:26:55;12.70;99.90
52965;DHT22;42923;53.220;6.528;2022-07-23T01:29:21;12.60;99.90
52965;DHT22;42923;53.220;6.528;2022-07-23T01:31:48;12.60;99.90
52965;DHT22;42923;53.220;6.528;2022-07-23T01:34:14;12.60;99.90
52965;DHT22;42923;53.220;6.528;2022-07-23T01:36:40;12.60;99.90
52965;DHT22;42923;53.220;6.528;2022-07-23T01:39:06;12.60;99.90
52965;DHT22;42923;53.220;6.528;2022-07-23T01:41:33;12.60;99.90
52965;DHT22;42923;53.220;6.528;2022-07-23T01:43:59;12.60;99.90
52965;DHT22;42923;53.220;6.528;2022-07-23T01:46:25;12.50;99.90
52965;DHT22;42923;53.220;6.528;2022-07-23T01:48:51;12.60;99.90
52965;DHT22;42923;53.220;6.528;2022-07-23T01:51:31;12.60;99.90
52965;DHT22;42923;53.220;6.528;2022-07-23T01:54:03;12.60;99.90
52965;DHT22;42923;53.220;6.528;2022-07-23T01:56:29;12.60;99.90
52965;DHT22;42923;53.220;6.528;2022-07-23T01:58:55;12.60;99.90
52965;DHT22;42923;53.220;6.528;2022-07-23T02:01:22;12.60;99.90
52965;DHT22;42923;53.220;6.528;2022-07-23T02:03:48;12.60;99.90
52965;DHT22;42923;53.220;6.528;2022-07-23T02:06:13;12.60;99.90
52965;DHT22;42923;53.220;6.528;2022-07-23T02:08:39;12.60;99.90
52965;DHT22;42923;53.220;6.528;2022-07-23T02:11:05;12.70;99.90
52965;DHT22;42923;53.220;6.528;2022-07-23T02:13:32;12.70;99.90
52965;DHT22;42923;53.220;6.528;2022-07-23T02:15:59;12.70;99.90
52965;DHT22;42923;53.220;6.528;2022-07-23T02:18:25;12.80;99.90
52965;DHT22;42923;53.220;6.528;2022-07-23T02:20:51;12.90;99.90
52965;DHT22;42923;53.220;6.528;2022-07-23T02:23:16;12.90;99.90
52965;DHT22;42923;53.220;6.528;2022-07-23T02:25:42;13.00;99.90
52965;DHT22;42923;53.220;6.528;2022-07-23T02:28:09;13.10;99.90
52965;DHT22;42923;53.220;6.528;2022-07-23T02:30:35;13.10;99.90
52965;DHT22;42923;53.220;6.528;2022-07-23T02:33:01;13.10;99.90
52965;DHT22;42923;53.220;6.528;2022-07-23T02:35:26;13.20;99.90
52965;DHT22;42923;53.220;6.528;2022-07-23T02:37:52;13.20;99.90
52965;DHT22;42923;53.220;6.528;2022-07-23T02:40:18;13.30;99.90
52965;DHT22;42923;53.220;6.528;2022-07-23T02:42:44;13.30;99.90
52965;DHT22;42923;53.220;6.528;2022-07-23T02:45:11;13.30;99.90
52965;DHT22;42923;53.220;6.528;2022-07-23T02:47:39;13.30;99.90
52965;DHT22;42923;53.220;6.528;2022-07-23T02:50:05;13.40;99.90
52965;DHT22;42923;53.220;6.528;2022-07-23T02:52:32;13.40;99.90
52965;DHT22;42923;53.220;6.528;2022-07-23T02:54:58;13.70;99.90
52965;DHT22;42923;53.220;6.528;2022-07-23T02:57:24;13.40;99.90
52965;DHT22;42923;53.220;6.528;2022-07-23T02:59:49;13.40;99.90
52965;DHT22;42923;53.220;6.528;2022-07-23T03:02:17;13.40;99.90
52965;DHT22;42923;53.220;6.528;2022-07-23T03:04:43;13.50;99.90
52965;DHT22;42923;53.220;6.528;2022-07-23T03:07:10;13.60;99.90
52965;DHT22;42923;53.220;6.528;2022-07-23T03:09:36;13.40;99.90
52965;DHT22;42923;53.220;6.528;2022-07-23T03:12:02;13.50;99.90
52965;DHT22;42923;53.220;6.528;2022-07-23T03:14:29;13.40;99.90
52965;DHT22;42923;53.220;6.528;2022-07-23T03:16:55;13.40;99.90
52965;DHT22;42923;53.220;6.528;2022-07-23T03:19:21;13.40;99.90
52965;DHT22;42923;53.220;6.528;2022-07-23T03:21:47;13.40;99.90
52965;DHT22;42923;53.220;6.528;2022-07-23T03:24:12;13.60;99.90
52965;DHT22;42923;53.220;6.528;2022-07-23T03:26:38;13.30;99.90
52965;DHT22;42923;53.220;6.528;2022-07-23T03:29:05;13.30;99.90
52965;DHT22;42923;53.220;6.528;2022-07-23T03:31:31;13.30;99.90
52965;DHT22;42923;53.220;6.528;2022-07-23T03:33:57;13.30;99.90
52965;DHT22;42923;53.220;6.528;2022-07-23T03:36:24;13.40;99.90
52965;DHT22;42923;53.220;6.528;2022-07-23T03:38:52;13.40;99.90
52965;DHT22;42923;53.220;6.528;2022-07-23T03:41:18;13.40;99.90
52965;DHT22;42923;53.220;6.528;2022-07-23T03:43:44;13.50;99.90
52965;DHT22;42923;53.220;6.528;2022-07-23T03:46:11;13.50;99.90
52965;DHT22;42923;53.220;6.528;2022-07-23T03:48:37;13.70;99.90
52965;DHT22;42923;53.220;6.528;2022-07-23T03:51:03;13.50;99.90
52965;DHT22;42923;53.220;6.528;2022-07-23T03:53:29;13.60;99.90
52965;DHT22;42923;53.220;6.528;2022-07-23T03:55:55;13.90;99.90
52965;DHT22;42923;53.220;6.528;2022-07-23T03:58:21;13.60;99.90
52965;DHT22;42923;53.220;6.528;2022-07-23T04:00:47;13.90;99.90
52965;DHT22;42923;53.220;6.528;2022-07-23T04:03:13;13.70;99.90
52965;DHT22;42923;53.220;6.528;2022-07-23T04:05:40;13.70;99.90
52965;DHT22;42923;53.220;6.528;2022-07-23T04:08:09;13.70;99.90
52965;DHT22;42923;53.220;6.528;2022-07-23T04:10:39;13.70;99.90
52965;DHT22;42923;53.220;6.528;2022-07-23T04:13:06;13.80;99.90
52965;DHT22;42923;53.220;6.528;2022-07-23T04:15:32;13.80;99.90
52965;DHT22;42923;53.220;6.528;2022-07-23T04:17:58;13.90;99.90
52965;DHT22;42923;53.220;6.528;2022-07-23T04:20:30;13.90;99.90
52965;DHT22;42923;53.220;6.528;2022-07-23T04:22:59;13.90;99.90
52965;DHT22;42923;53.220;6.528;2022-07-23T04:25:26;13.90;99.90
52965;DHT22;42923;53.220;6.528;2022-07-23T04:27:51;13.90;99.90
52965;DHT22;42923;53.220;6.528;2022-07-23T04:30:17;14.20;99.90
52965;DHT22;42923;53.220;6.528;2022-07-23T04:32:43;13.90;99.90
52965;DHT22;42923;53.220;6.528;2022-07-23T04:35:17;14.00;99.90
52965;DHT22;42923;53.220;6.528;2022-07-23T04:37:44;13.90;99.90
52965;DHT22;42923;53.220;6.528;2022-07-23T04:40:10;14.10;99.90
52965;DHT22;42923;53.220;6.528;2022-07-23T04:42:36;13.90;99.90
52965;DHT22;42923;53.220;6.528;2022-07-23T04:45:03;13.90;99.90
52965;DHT22;42923;53.220;6.528;2022-07-23T04:47:30;13.80;99.90
52965;DHT22;42923;53.220;6.528;2022-07-23T04:49:57;13.80;99.90
52965;DHT22;42923;53.220;6.528;2022-07-23T04:52:24;13.90;99.90
52965;DHT22;42923;53.220;6.528;2022-07-23T04:54:52;13.90;99.90
52965;DHT22;42923;53.220;6.528;2022-07-23T04:57:18;14.00;99.90
52965;DHT22;42923;53.220;6.528;2022-07-23T04:59:43;14.00;99.90
52965;DHT22;42923;53.220;6.528;2022-07-23T05:02:10;14.10;99.90
52965;DHT22;42923;53.220;6.528;2022-07-23T05:04:36;14.10;99.90
52965;DHT22;42923;53.220;6.528;2022-07-23T05:07:02;14.20;99.90
52965;DHT22;42923;53.220;6.528;2022-07-23T05:09:29;14.30;99.90
52965;DHT22;42923;53.220;6.528;2022-07-23T05:11:54;14.40;99.90
52965;DHT22;42923;53.220;6.528;2022-07-23T05:14:21;14.50;99.90
52965;DHT22;42923;53.220;6.528;2022-07-23T05:16:47;14.50;99.90
52965;DHT22;42923;53.220;6.528;2022-07-23T05:19:20;14.60;99.90
52965;DHT22;42923;53.220;6.528;2022-07-23T05:21:46;14.60;99.90
52965;DHT22;42923;53.220;6.528;2022-07-23T05:24:12;14.70;99.90
52965;DHT22;42923;53.220;6.528;2022-07-23T05:26:38;14.70;99.90
52965;DHT22;42923;53.220;6.528;2022-07-23T05:29:04;14.80;99.90
52965;DHT22;42923;53.220;6.528;2022-07-23T05:31:30;14.70;99.90
52965;DHT22;42923;53.220;6.528;2022-07-23T05:33:56;14.60;99.90
52965;DHT22;42923;53.220;6.528;2022-07-23T05:36:22;14.50;99.90
52965;DHT22;42923;53.220;6.528;2022-07-23T05:38:52;14.50;99.90
52965;DHT22;42923;53.220;6.528;2022-07-23T05:41:18;14.50;99.90
52965;DHT22;42923;53.220;6.528;2022-07-23T05:43:43;14.50;99.90
52965;DHT22;42923;53.220;6.528;2022-07-23T05:46:11;14.60;99.90
52965;DHT22;42923;53.220;6.528;2022-07-23T05:48:39;14.80;99.90
52965;DHT22;42923;53.220;6.528;2022-07-23T05:51:14;15.00;99.90
52965;DHT22;42923;53.220;6.528;2022-07-23T05:53:39;15.20;99.90
52965;DHT22;42923;53.220;6.528;2022-07-23T05:56:19;15.30;99.90
52965;DHT22;42923;53.220;6.528;2022-07-23T05:58:45;15.40;99.90
52965;DHT22;42923;53.220;6.528;2022-07-23T06:01:12;15.70;99.90
52965;DHT22;42923;53.220;6.528;2022-07-23T06:03:45;15.60;99.90
52965;DHT22;42923;53.220;6.528;2022-07-23T06:06:11;15.60;99.90
52965;DHT22;42923;53.220;6.528;2022-07-23T06:08:37;15.90;99.90
52965;DHT22;42923;53.220;6.528;2022-07-23T06:11:04;15.70;99.90
52965;DHT22;42923;53.220;6.528;2022-07-23T06:13:29;15.80;99.90
52965;DHT22;42923;53.220;6.528;2022-07-23T06:15:55;15.90;99.90
52965;DHT22;42923;53.220;6.528;2022-07-23T06:18:21;16.00;99.90
52965;DHT22;42923;53.220;6.528;2022-07-23T06:20:46;16.10;99.90
52965;DHT22;42923;53.220;6.528;2022-07-23T06:23:12;16.10;99.90
52965;DHT22;42923;53.220;6.528;2022-07-23T06:25:38;16.20;99.90
52965;DHT22;42923;53.220;6.528;2022-07-23T06:28:04;16.10;99.90
52965;DHT22;42923;53.220;6.528;2022-07-23T06:30:30;16.10;99.90
52965;DHT22;42923;53.220;6.528;2022-07-23T06:32:56;16.10;99.90
52965;DHT22;42923;53.220;6.528;2022-07-23T06:35:22;16.10;99.90
52965;DHT22;42923;53.220;6.528;2022-07-23T06:37:47;16.10;99.90
52965;DHT22;42923;53.220;6.528;2022-07-23T06:40:13;16.10;99.90
52965;DHT22;42923;53.220;6.528;2022-07-23T06:42:39;16.10;99.90
52965;DHT22;42923;53.220;6.528;2022-07-23T06:45:06;16.20;99.90
52965;DHT22;42923;53.220;6.528;2022-07-23T06:47:35;16.00;99.90
52965;DHT22;42923;53.220;6.528;2022-07-23T06:50:01;16.00;99.90
52965;DHT22;42923;53.220;6.528;2022-07-23T06:52:27;16.10;99.90
52965;DHT22;42923;53.220;6.528;2022-07-23T06:54:53;16.10;99.90
52965;DHT22;42923;53.220;6.528;2022-07-23T06:57:18;16.20;99.90
52965;DHT22;42923;53.220;6.528;2022-07-23T06:59:44;16.20;99.90
52965;DHT22;42923;53.220;6.528;2022-07-23T07:02:10;16.30;99.90
52965;DHT22;42923;53.220;6.528;2022-07-23T07:04:36;16.40;99.90
52965;DHT22;42923;53.220;6.528;2022-07-23T07:07:02;16.70;99.90
52965;DHT22;42923;53.220;6.528;2022-07-23T07:09:28;16.70;99.90
52965;DHT22;42923;53.220;6.528;2022-07-23T07:11:54;16.80;99.90
52965;DHT22;42923;53.220;6.528;2022-07-23T07:14:20;17.00;99.90
52965;DHT22;42923;53.220;6.528;2022-07-23T07:16:45;17.20;99.90
52965;DHT22;42923;53.220;6.528;2022-07-23T07:19:11;17.60;99.90
52965;DHT22;42923;53.220;6.528;2022-07-23T07:21:37;17.90;99.90
52965;DHT22;42923;53.220;6.528;2022-07-23T07:24:03;18.30;99.90
52965;DHT22;42923;53.220;6.528;2022-07-23T07:26:29;18.80;99.90
52965;DHT22;42923;53.220;6.528;2022-07-23T07:28:56;19.30;99.90
52965;DHT22;42923;53.220;6.528;2022-07-23T07:31:22;19.40;99.90
52965;DHT22;42923;53.220;6.528;2022-07-23T07:33:48;19.40;99.90
52965;DHT22;42923;53.220;6.528;2022-07-23T07:36:16;19.30;99.90
52965;DHT22;42923;53.220;6.528;2022-07-23T07:38:42;19.20;99.90
52965;DHT22;42923;53.220;6.528;2022-07-23T07:41:07;19.10;99.90
52965;DHT22;42923;53.220;6.528;2022-07-23T07:43:36;19.00;99.90
52965;DHT22;42923;53.220;6.528;2022-07-23T07:46:02;19.10;99.90
52965;DHT22;42923;53.220;6.528;2022-07-23T07:48:28;19.20;99.90
52965;DHT22;42923;53.220;6.528;2022-07-23T07:50:54;19.20;99.90
52965;DHT22;42923;53.220;6.528;2022-07-23T07:53:20;19.30;99.90
52965;DHT22;42923;53.220;6.528;2022-07-23T07:55:45;19.20;99.90
52965;DHT22;42923;53.220;6.528;2022-07-23T07:58:11;19.30;99.90
52965;DHT22;42923;53.220;6.528;2022-07-23T08:00:38;19.30;99.90
52965;DHT22;42923;53.220;6.528;2022-07-23T08:03:05;19.30;99.90
52965;DHT22;42923;53.220;6.528;2022-07-23T08:05:31;19.30;99.90
52965;DHT22;42923;53.220;6.528;2022-07-23T08:07:58;19.60;99.90
52965;DHT22;42923;53.220;6.528;2022-07-23T08:10:25;19.70;99.90
52965;DHT22;42923;53.220;6.528;2022-07-23T08:12:54;19.90;99.90
52965;DHT22;42923;53.220;6.528;2022-07-23T08:15:27;19.90;99.90
52965;DHT22;42923;53.220;6.528;2022-07-23T08:17:54;19.90;99.90
52965;DHT22;42923;53.220;6.528;2022-07-23T08:20:21;19.90;99.90
52965;DHT22;42923;53.220;6.528;2022-07-23T08:22:57;19.80;99.90
52965;DHT22;42923;53.220;6.528;2022-07-23T08:25:27;19.80;99.90
52965;DHT22;42923;53.220;6.528;2022-07-23T08:27:53;20.00;99.90
52965;DHT22;42923;53.220;6.528;2022-07-23T08:30:19;20.20;99.90
52965;DHT22;42923;53.220;6.528;2022-07-23T08:32:58;20.40;99.90
52965;DHT22;42923;53.220;6.528;2022-07-23T08:38:25;20.60;99.90
52965;DHT22;42923;53.220;6.528;2022-07-23T08:40:52;20.40;99.90
52965;DHT22;42923;53.220;6.528;2022-07-23T08:43:21;20.30;99.90
52965;DHT22;42923;53.220;6.528;2022-07-23T08:45:50;20.20;99.90
52965;DHT22;42923;53.220;6.528;2022-07-23T08:48:18;20.10;99.90
52965;DHT22;42923;53.220;6.528;2022-07-23T08:50:47;20.10;99.90
52965;DHT22;42923;53.220;6.528;2022-07-23T08:53:14;19.90;99.90
52965;DHT22;42923;53.220;6.528;2022-07-23T08:55:46;19.90;99.90
52965;DHT22;42923;53.220;6.528;2022-07-23T08:58:13;20.00;99.90
52965;DHT22;42923;53.220;6.528;2022-07-23T09:00:39;20.10;99.90
52965;DHT22;42923;53.220;6.528;2022-07-23T09:03:05;20.10;99.90
52965;DHT22;42923;53.220;6.528;2022-07-23T09:05:31;20.20;99.90
52965;DHT22;42923;53.220;6.528;2022-07-23T09:08:17;20.30;99.90
52965;DHT22;42923;53.220;6.528;2022-07-23T09:15:50;20.40;99.90
52965;DHT22;42923;53.220;6.528;2022-07-23T09:18:16;20.40;99.90
52965;DHT22;42923;53.220;6.528;2022-07-23T09:20:44;20.50;99.90
52965;DHT22;42923;53.220;6.528;2022-07-23T09:23:09;20.60;99.90
52965;DHT22;42923;53.220;6.528;2022-07-23T09:25:35;20.80;99.90
52965;DHT22;42923;53.220;6.528;2022-07-23T09:28:01;20.80;99.90
52965;DHT22;42923;53.220;6.528;2022-07-23T09:30:32;20.80;99.90
52965;DHT22;42923;53.220;6.528;2022-07-23T09:33:13;20.80;99.90
52965;DHT22;42923;53.220;6.528;2022-07-23T09:35:54;20.80;99.90
52965;DHT22;42923;53.220;6.528;2022-07-23T09:38:22;20.90;99.90
52965;DHT22;42923;53.220;6.528;2022-07-23T09:41:10;21.00;99.90
52965;DHT22;42923;53.220;6.528;2022-07-23T09:43:36;21.20;99.90
52965;DHT22;42923;53.220;6.528;2022-07-23T09:46:24;21.30;99.90
52965;DHT22;42923;53.220;6.528;2022-07-23T09:48:52;21.40;99.90
52965;DHT22;42923;53.220;6.528;2022-07-23T09:51:19;21.50;99.90
52965;DHT22;42923;53.220;6.528;2022-07-23T09:56:51;21.60;99.90
52965;DHT22;42923;53.220;6.528;2022-07-23T09:59:18;21.70;99.90
52965;DHT22;42923;53.220;6.528;2022-07-23T10:01:47;21.70;99.90
52965;DHT22;42923;53.220;6.528;2022-07-23T10:04:14;21.60;99.90
52965;DHT22;42923;53.220;6.528;2022-07-23T10:07:07;21.70;99.90
52965;DHT22;42923;53.220;6.528;2022-07-23T10:09:55;21.60;99.90
52965;DHT22;42923;53.220;6.528;2022-07-23T10:12:41;21.50;99.90
52965;DHT22;42923;53.220;6.528;2022-07-23T10:15:18;21.50;99.90
52965;DHT22;42923;53.220;6.528;2022-07-23T10:17:44;21.30;99.90
52965;DHT22;42923;53.220;6.528;2022-07-23T10:20:09;21.10;99.90
52965;DHT22;42923;53.220;6.528;2022-07-23T10:22:42;21.10;99.90
52965;DHT22;42923;53.220;6.528;2022-07-23T10:31:20;21.20;99.90
52965;DHT22;42923;53.220;6.528;2022-07-23T10:34:07;21.20;99.90
52965;DHT22;42923;53.220;6.528;2022-07-23T10:41:41;21.40;99.90
52965;DHT22;42923;53.220;6.528;2022-07-23T10:44:19;21.70;99.90
52965;DHT22;42923;53.220;6.528;2022-07-23T10:47:03;22.10;99.90
52965;DHT22;42923;53.220;6.528;2022-07-23T10:49:35;22.40;99.90
52965;DHT22;42923;53.220;6.528;2022-07-23T10:52:24;22.40;99.90
52965;DHT22;42923;53.220;6.528;2022-07-23T10:57:47;22.10;99.90
52965;DHT22;42923;53.220;6.528;2022-07-23T11:00:14;22.00;99.90
52965;DHT22;42923;53.220;6.528;2022-07-23T11:02:45;22.00;99.90
52965;DHT22;42923;53.220;6.528;2022-07-23T11:05:17;22.00;99.90
52965;DHT22;42923;53.220;6.528;2022-07-23T11:11:13;21.90;99.90
52965;DHT22;42923;53.220;6.528;2022-07-23T11:13:39;21.70;99.90
52965;DHT22;42923;53.220;6.528;2022-07-23T11:16:16;21.60;99.90
52965;DHT22;42923;53.220;6.528;2022-07-23T11:24:16;21.10;99.90
52965;DHT22;42923;53.220;6.528;2022-07-23T11:26:56;21.30;99.90
52965;DHT22;42923;53.220;6.528;2022-07-23T11:32:02;21.70;99.90
52965;DHT22;42923;53.220;6.528;2022-07-23T11:34:41;21.90;99.90
52965;DHT22;42923;53.220;6.528;2022-07-23T11:37:09;22.00;99.90
52965;DHT22;42923;53.220;6.528;2022-07-23T11:39:35;22.10;99.90
52965;DHT22;42923;53.220;6.528;2022-07-23T11:42:03;22.20;99.90
52965;DHT22;42923;53.220;6.528;2022-07-23T11:44:35;22.20;99.90
52965;DHT22;42923;53.220;6.528;2022-07-23T11:47:06;22.10;99.90
52965;DHT22;42923;53.220;6.528;2022-07-23T11:49:33;22.00;99.90
52965;DHT22;42923;53.220;6.528;2022-07-23T11:54:35;22.20;99.90
52965;DHT22;42923;53.220;6.528;2022-07-23T11:57:02;22.20;99.90
52965;DHT22;42923;53.220;6.528;2022-07-23T11:59:31;22.30;99.90
52965;DHT22;42923;53.220;6.528;2022-07-23T12:02:02;22.50;99.90
52965;DHT22;42923;53.220;6.528;2022-07-23T12:04:43;22.50;99.90
52965;DHT22;42923;53.220;6.528;2022-07-23T12:10:03;23.60;99.90
52965;DHT22;42923;53.220;6.528;2022-07-23T12:12:39;24.10;99.90
52965;DHT22;42923;53.220;6.528;2022-07-23T12:15:05;24.50;99.90
52965;DHT22;42923;53.220;6.528;2022-07-23T12:17:34;24.80;99.90
52965;DHT22;42923;53.220;6.528;2022-07-23T12:20:02;24.80;99.90
52965;DHT22;42923;53.220;6.528;2022-07-23T12:22:38;25.00;99.90
52965;DHT22;42923;53.220;6.528;2022-07-23T12:25:22;25.10;99.90
52965;DHT22;42923;53.220;6.528;2022-07-23T12:30:26;24.70;99.90
52965;DHT22;42923;53.220;6.528;2022-07-23T12:32:54;24.40;99.90
52965;DHT22;42923;53.220;6.528;2022-07-23T12:35:22;24.20;99.90
52965;DHT22;42923;53.220;6.528;2022-07-23T12:37:50;24.30;99.90
52965;DHT22;42923;53.220;6.528;2022-07-23T12:40:30;24.70;99.90
52965;DHT22;42923;53.220;6.528;2022-07-23T12:43:01;25.00;99.90
52965;DHT22;42923;53.220;6.528;2022-07-23T12:45:29;25.30;99.90
52965;DHT22;42923;53.220;6.528;2022-07-23T12:48:06;25.70;99.90
52965;DHT22;42923;53.220;6.528;2022-07-23T12:58:57;25.00;97.20
52965;DHT22;42923;53.220;6.528;2022-07-23T13:01:26;24.90;96.60
52965;DHT22;42923;53.220;6.528;2022-07-23T13:04:19;24.70;97.20
52965;DHT22;42923;53.220;6.528;2022-07-23T13:06:53;24.90;99.90
52965;DHT22;42923;53.220;6.528;2022-07-23T13:09:30;25.10;99.50
52965;DHT22;42923;53.220;6.528;2022-07-23T13:11:57;25.40;99.90
52965;DHT22;42923;53.220;6.528;2022-07-23T13:14:24;25.90;99.90
52965;DHT22;42923;53.220;6.528;2022-07-23T13:16:52;26.50;98.70
52965;DHT22;42923;53.220;6.528;2022-07-23T13:19:19;26.90;95.00
52965;DHT22;42923;53.220;6.528;2022-07-23T13:21:45;27.20;94.50
52965;DHT22;42923;53.220;6.528;2022-07-23T13:24:11;27.70;91.90
52965;DHT22;42923;53.220;6.528;2022-07-23T13:26:38;28.10;87.40
52965;DHT22;42923;53.220;6.528;2022-07-23T13:29:07;28.30;83.40
52965;DHT22;42923;53.220;6.528;2022-07-23T13:31:32;28.30;83.50
52965;DHT22;42923;53.220;6.528;2022-07-23T13:33:58;28.70;82.70
52965;DHT22;42923;53.220;6.528;2022-07-23T13:36:24;29.30;81.70
52965;DHT22;42923;53.220;6.528;2022-07-23T13:38:49;29.90;80.40
52965;DHT22;42923;53.220;6.528;2022-07-23T13:41:17;30.50;79.10
52965;DHT22;42923;53.220;6.528;2022-07-23T13:43:43;31.10;75.30
52965;DHT22;42923;53.220;6.528;2022-07-23T13:46:08;31.10;70.30
52965;DHT22;42923;53.220;6.528;2022-07-23T13:48:34;30.30;68.20
52965;DHT22;42923;53.220;6.528;2022-07-23T13:51:00;29.40;68.40
52965;DHT22;42923;53.220;6.528;2022-07-23T13:53:25;28.80;69.40
52965;DHT22;42923;53.220;6.528;2022-07-23T13:55:53;28.60;70.50
52965;DHT22;42923;53.220;6.528;2022-07-23T13:58:19;28.90;70.90
52965;DHT22;42923;53.220;6.528;2022-07-23T14:00:50;29.40;72.80
52965;DHT22;42923;53.220;6.528;2022-07-23T14:03:17;30.00;69.70
52965;DHT22;42923;53.220;6.528;2022-07-23T14:05:43;30.10;67.90
52965;DHT22;42923;53.220;6.528;2022-07-23T14:08:09;29.70;67.60
52965;DHT22;42923;53.220;6.528;2022-07-23T14:10:35;28.90;68.40
52965;DHT22;42923;53.220;6.528;2022-07-23T14:13:01;28.30;68.50
52965;DHT22;42923;53.220;6.528;2022-07-23T14:15:28;27.60;70.70
52965;DHT22;42923;53.220;6.528;2022-07-23T14:17:55;27.30;72.10
52965;DHT22;42923;53.220;6.528;2022-07-23T14:20:21;27.80;74.70
52965;DHT22;42923;53.220;6.528;2022-07-23T14:22:47;28.60;72.20
52965;DHT22;42923;53.220;6.528;2022-07-23T14:25:15;28.90;70.80
52965;DHT22;42923;53.220;6.528;2022-07-23T14:27:42;29.00;70.50
52965;DHT22;42923;53.220;6.528;2022-07-23T14:30:08;29.40;69.40
52965;DHT22;42923;53.220;6.528;2022-07-23T14:32:35;29.80;66.80
52965;DHT22;42923;53.220;6.528;2022-07-23T14:35:02;29.70;66.10
52965;DHT22;42923;53.220;6.528;2022-07-23T14:37:28;29.60;66.70
52965;DHT22;42923;53.220;6.528;2022-07-23T14:39:54;29.60;67.20
52965;DHT22;42923;53.220;6.528;2022-07-23T14:42:19;29.80;67.50
52965;DHT22;42923;53.220;6.528;2022-07-23T14:44:45;30.20;66.30
52965;DHT22;42923;53.220;6.528;2022-07-23T14:47:11;30.30;66.00
52965;DHT22;42923;53.220;6.528;2022-07-23T14:49:37;30.30;66.30
52965;DHT22;42923;53.220;6.528;2022-07-23T14:52:04;30.60;65.50
52965;DHT22;42923;53.220;6.528;2022-07-23T14:54:30;31.00;64.20
52965;DHT22;42923;53.220;6.528;2022-07-23T14:56:57;31.40;63.80
52965;DHT22;42923;53.220;6.528;2022-07-23T14:59:23;31.60;63.30
52965;DHT22;42923;53.220;6.528;2022-07-23T15:01:49;31.30;61.90
52965;DHT22;42923;53.220;6.528;2022-07-23T15:04:16;30.90;63.10
52965;DHT22;42923;53.220;6.528;2022-07-23T15:06:42;31.00;64.80
52965;DHT22;42923;53.220;6.528;2022-07-23T15:09:07;31.00;62.90
52965;DHT22;42923;53.220;6.528;2022-07-23T15:11:33;30.40;61.50
52965;DHT22;42923;53.220;6.528;2022-07-23T15:14:06;29.80;63.10
52965;DHT22;42923;53.220;6.528;2022-07-23T15:16:33;29.80;64.10
52965;DHT22;42923;53.220;6.528;2022-07-23T15:18:59;30.10;63.40
52965;DHT22;42923;53.220;6.528;2022-07-23T15:21:24;30.30;62.70
52965;DHT22;42923;53.220;6.528;2022-07-23T15:23:50;30.40;62.80
52965;DHT22;42923;53.220;6.528;2022-07-23T15:26:17;30.40;62.00
52965;DHT22;42923;53.220;6.528;2022-07-23T15:28:44;30.40;63.00
52965;DHT22;42923;53.220;6.528;2022-07-23T15:31:10;30.50;62.80
52965;DHT22;42923;53.220;6.528;2022-07-23T15:33:36;30.80;63.10
52965;DHT22;42923;53.220;6.528;2022-07-23T15:36:02;31.20;62.50
52965;DHT22;42923;53.220;6.528;2022-07-23T15:38:28;31.30;62.20
52965;DHT22;42923;53.220;6.528;2022-07-23T15:40:56;31.30;61.50
52965;DHT22;42923;53.220;6.528;2022-07-23T15:43:23;31.10;60.90
52965;DHT22;42923;53.220;6.528;2022-07-23T15:45:49;30.70;60.70
52965;DHT22;42923;53.220;6.528;2022-07-23T15:48:16;29.90;61.70
52965;DHT22;42923;53.220;6.528;2022-07-23T15:50:42;29.20;62.90
52965;DHT22;42923;53.220;6.528;2022-07-23T15:53:09;28.60;63.00
52965;DHT22;42923;53.220;6.528;2022-07-23T15:55:34;27.80;64.30
52965;DHT22;42923;53.220;6.528;2022-07-23T15:58:01;27.10;65.90
52965;DHT22;42923;53.220;6.528;2022-07-23T16:00:27;26.50;67.20
52965;DHT22;42923;53.220;6.528;2022-07-23T16:02:53;26.10;68.30
52965;DHT22;42923;53.220;6.528;2022-07-23T16:05:18;25.70;68.90
52965;DHT22;42923;53.220;6.528;2022-07-23T16:07:44;25.20;69.80
52965;DHT22;42923;53.220;6.528;2022-07-23T16:10:11;24.80;71.40
52965;DHT22;42923;53.220;6.528;2022-07-23T16:12:38;24.50;73.60
52965;DHT22;42923;53.220;6.528;2022-07-23T16:15:04;24.30;73.70
52965;DHT22;42923;53.220;6.528;2022-07-23T16:17:30;24.00;74.30
52965;DHT22;42923;53.220;6.528;2022-07-23T16:19:56;23.80;75.10
52965;DHT22;42923;53.220;6.528;2022-07-23T16:22:21;23.60;76.10
52965;DHT22;42923;53.220;6.528;2022-07-23T16:24:47;23.40;77.20
52965;DHT22;42923;53.220;6.528;2022-07-23T16:27:13;23.20;79.00